createdAt,value
2023-03-22T00:00:30.237Z,7.23
2023-03-22T00:03:32.835Z,7.19
2023-03-22T00:06:35.590Z,7.12
2023-03-22T00:09:38.448Z,7.05
2023-03-22T00:12:41.029Z,7.02
2023-03-22T00:15:49.285Z,6.93
2023-03-22T00:18:52.049Z,6.85
2023-03-22T00:21:55.670Z,6.72
2023-03-22T00:24:58.758Z,6.68
2023-03-22T00:28:01.260Z,6.68
2023-03-22T00:31:05.376Z,6.61
2023-03-22T00:34:08.702Z,6.49
2023-03-22T00:37:11.314Z,6.33
2023-03-22T00:40:16.247Z,6.18
2023-03-22T00:43:20.850Z,6.12
2023-03-22T00:46:23.432Z,6.08
2023-03-22T00:49:27.282Z,5.96
2023-03-22T00:52:30.102Z,5.96
2023-03-22T00:55:34.452Z,5.89
2023-03-22T00:58:38.065Z,5.81
2023-03-22T01:01:41.073Z,5.81
2023-03-22T01:04:46.473Z,5.70
2023-03-22T01:07:52.107Z,5.64
2023-03-22T01:10:54.715Z,5.60
2023-03-22T01:13:57.281Z,5.48
2023-03-22T01:17:00.365Z,5.43
2023-03-22T01:20:04.486Z,5.42
2023-03-22T01:23:07.187Z,5.38
2023-03-22T01:26:09.660Z,5.44
2023-03-22T01:29:13.000Z,5.48
2023-03-22T01:32:15.788Z,5.39
2023-03-22T01:35:18.612Z,5.37
2023-03-22T01:38:22.334Z,5.36
2023-03-22T01:41:30.438Z,5.33
2023-03-22T01:44:34.176Z,5.26
2023-03-22T01:47:39.428Z,5.16
2023-03-22T01:50:49.133Z,5.14
2023-03-22T01:54:02.463Z,5.10
2023-03-22T01:57:05.060Z,5.10
2023-03-22T02:00:16.009Z,4.94
2023-03-22T02:04:16.388Z,4.91
2023-03-22T02:07:26.106Z,4.95
2023-03-22T02:10:31.356Z,4.87
2023-03-22T02:13:42.481Z,4.92
2023-03-22T02:17:23.727Z,4.87
2023-03-22T02:21:07.888Z,4.94
2023-03-22T02:24:31.109Z,4.97
2023-03-22T02:27:39.107Z,5.00
2023-03-22T02:31:17.506Z,5.10
2023-03-22T02:34:25.906Z,5.08
2023-03-22T02:37:37.786Z,5.09
2023-03-22T02:40:58.704Z,5.12
2023-03-22T02:44:32.475Z,5.25
2023-03-22T02:47:49.289Z,5.38
2023-03-22T02:50:55.714Z,5.54
2023-03-22T02:54:11.606Z,5.58
2023-03-22T02:57:44.351Z,5.62
2023-03-22T03:00:51.159Z,5.69
2023-03-22T03:03:57.937Z,5.70
2023-03-22T03:07:09.413Z,5.80
2023-03-22T03:10:17.005Z,5.87
2023-03-22T03:13:20.160Z,5.89
2023-03-22T03:16:29.570Z,5.94
2023-03-22T03:19:57.490Z,6.02
2023-03-22T03:23:09.871Z,5.97
2023-03-22T03:26:21.292Z,6.00
2023-03-22T03:29:45.379Z,6.00
2023-03-22T03:32:55.807Z,6.08
2023-03-22T03:36:08.447Z,6.02
2023-03-22T03:39:14.592Z,6.00
2023-03-22T03:42:18.620Z,5.95
2023-03-22T03:45:23.393Z,6.01
2023-03-22T03:48:33.116Z,5.97
2023-03-22T03:51:46.961Z,5.97
2023-03-22T03:54:49.545Z,5.94
2023-03-22T03:57:55.890Z,5.89
2023-03-22T04:00:58.578Z,5.89
2023-03-22T04:04:29.398Z,5.83
2023-03-22T04:07:39.302Z,5.88
2023-03-22T04:10:41.998Z,5.89
2023-03-22T04:13:44.636Z,5.71
2023-03-22T04:16:52.546Z,5.69
2023-03-22T04:19:57.203Z,5.64
2023-03-22T04:23:00.373Z,5.65
2023-03-22T04:26:03.772Z,5.63
2023-03-22T04:29:16.545Z,5.51
2023-03-22T04:32:24.010Z,5.42
2023-03-22T04:35:27.646Z,5.30
2023-03-22T04:38:30.553Z,5.22
2023-03-22T04:41:34.557Z,5.17
2023-03-22T04:44:37.088Z,5.09
2023-03-22T04:47:40.505Z,5.04
2023-03-22T04:50:43.648Z,5.02
2023-03-22T04:53:47.077Z,5.07
2023-03-22T04:56:50.568Z,5.02
2023-03-22T04:59:56.378Z,4.94
2023-03-22T05:02:59.091Z,4.89
2023-03-22T05:06:10.465Z,5.00
2023-03-22T05:09:23.588Z,5.01
2023-03-22T05:12:28.627Z,4.97
2023-03-22T05:15:51.910Z,4.93
2023-03-22T05:18:58.851Z,5.01
2023-03-22T05:22:02.210Z,4.92
2023-03-22T05:25:20.077Z,4.90
2023-03-22T05:28:22.830Z,4.92
2023-03-22T05:32:00.741Z,4.94
2023-03-22T05:35:05.111Z,5.06
2023-03-22T05:38:12.820Z,5.23
2023-03-22T05:41:20.842Z,5.36
2023-03-22T05:44:23.411Z,5.56
2023-03-22T05:47:39.661Z,5.76
2023-03-22T05:50:55.594Z,5.91
2023-03-22T05:53:59.170Z,6.06
2023-03-22T05:57:09.358Z,6.22
2023-03-22T06:00:16.358Z,6.29
2023-03-22T06:03:39.609Z,6.45
2023-03-22T06:06:53.900Z,6.61
2023-03-22T06:10:17.773Z,6.78
2023-03-22T06:13:27.378Z,6.93
2023-03-22T06:16:36.778Z,7.05
2023-03-22T06:19:39.573Z,7.19
2023-03-22T06:22:44.028Z,7.36
2023-03-22T06:25:46.804Z,7.43
2023-03-22T06:28:51.343Z,7.59
2023-03-22T06:31:55.044Z,7.84
2023-03-22T06:34:57.631Z,8.05
2023-03-22T06:38:01.504Z,8.31
2023-03-22T06:41:04.861Z,8.53
2023-03-22T06:44:07.502Z,8.84
2023-03-22T06:47:36.549Z,9.29
2023-03-22T06:50:49.820Z,9.66
2023-03-22T06:54:02.281Z,9.95
2023-03-22T06:57:04.965Z,10.31
2023-03-22T07:00:08.380Z,10.57
2023-03-22T07:03:11.230Z,10.79
2023-03-22T07:06:36.201Z,11.09
2023-03-22T07:09:42.522Z,11.38
2023-03-22T07:12:50.016Z,11.47
2023-03-22T07:16:01.511Z,11.40
2023-03-22T07:19:22.216Z,11.31
2023-03-22T07:22:26.313Z,11.41
2023-03-22T07:25:30.972Z,11.40
2023-03-22T07:28:47.387Z,11.52
2023-03-22T07:31:51.370Z,11.71
2023-03-22T07:35:00.317Z,11.93
2023-03-22T07:38:08.545Z,11.92
2023-03-22T07:41:11.209Z,12.05
2023-03-22T07:44:43.251Z,12.26
2023-03-22T07:47:56.219Z,12.34
2023-03-22T07:51:34.774Z,12.46
2023-03-22T07:54:39.401Z,12.58
2023-03-22T07:57:43.618Z,12.78
2023-03-22T08:00:46.380Z,12.88
2023-03-22T08:04:07.381Z,12.81
2023-03-22T08:07:30.436Z,12.72
2023-03-22T08:10:34.198Z,12.81
2023-03-22T08:13:38.023Z,12.88
2023-03-22T08:16:41.798Z,12.92
2023-03-22T08:19:57.683Z,13.16
2023-03-22T08:23:17.348Z,13.37
2023-03-22T08:26:32.777Z,13.47
2023-03-22T08:29:53.307Z,13.70
2023-03-22T08:32:56.123Z,13.66
2023-03-22T08:36:10.186Z,13.79
2023-03-22T08:39:19.503Z,14.06
2023-03-22T08:42:45.404Z,14.46
2023-03-22T08:45:48.013Z,14.53
2023-03-22T08:48:52.995Z,14.27
2023-03-22T08:52:02.566Z,14.37
2023-03-22T08:55:44.986Z,14.62
2023-03-22T08:58:47.845Z,14.35
2023-03-22T09:02:09.183Z,14.52
2023-03-22T09:05:13.800Z,14.51
2023-03-22T09:08:19.615Z,14.70
2023-03-22T09:11:28.033Z,15.13
2023-03-22T09:14:32.047Z,15.31
2023-03-22T09:17:35.038Z,15.20
2023-03-22T09:20:40.262Z,14.99
2023-03-22T09:23:47.772Z,15.15
2023-03-22T09:26:53.354Z,15.27
2023-03-22T09:29:55.980Z,15.05
2023-03-22T09:32:59.541Z,15.22
2023-03-22T09:36:02.554Z,15.44
2023-03-22T09:39:10.148Z,15.64
2023-03-22T09:42:21.970Z,15.74
2023-03-22T09:45:39.798Z,15.44
2023-03-22T09:48:44.794Z,15.58
2023-03-22T09:51:50.582Z,15.50
2023-03-22T09:54:53.542Z,15.66
2023-03-22T09:58:04.008Z,15.95
2023-03-22T10:01:37.857Z,15.63
2023-03-22T10:04:43.790Z,15.69
2023-03-22T10:08:06.845Z,15.55
2023-03-22T10:11:38.301Z,15.56
2023-03-22T10:14:46.875Z,15.38
2023-03-22T10:17:53.568Z,15.59
2023-03-22T10:21:07.029Z,16.01
2023-03-22T10:24:32.038Z,15.75
2023-03-22T10:27:36.266Z,15.41
2023-03-22T10:30:41.804Z,15.36
2023-03-22T10:34:06.699Z,15.40
2023-03-22T10:37:16.247Z,15.45
2023-03-22T10:40:24.631Z,15.74
2023-03-22T10:43:36.803Z,15.72
2023-03-22T10:46:40.901Z,15.99
2023-03-22T10:49:48.572Z,15.73
2023-03-22T10:53:08.285Z,15.64
2023-03-22T10:56:22.024Z,15.70
2023-03-22T10:59:54.782Z,15.88
2023-03-22T11:03:01.772Z,16.02
2023-03-22T11:06:18.203Z,15.96
2023-03-22T11:09:23.651Z,16.01
2023-03-22T11:12:26.424Z,16.10
2023-03-22T11:15:34.734Z,16.07
2023-03-22T11:18:41.468Z,16.36
2023-03-22T11:21:45.515Z,16.88
2023-03-22T11:24:48.474Z,17.00
2023-03-22T11:27:56.989Z,16.92
2023-03-22T11:31:14.602Z,16.88
2023-03-22T11:34:19.900Z,16.66
2023-03-22T11:37:22.419Z,16.97
2023-03-22T11:40:49.895Z,17.27
2023-03-22T11:43:57.134Z,16.92
2023-03-22T11:47:02.832Z,17.07
2023-03-22T11:50:10.753Z,16.99
2023-03-22T11:53:18.030Z,17.24
2023-03-22T11:56:26.310Z,17.26
2023-03-22T11:59:59.278Z,17.17
2023-03-22T12:03:06.316Z,17.13
2023-03-22T12:06:28.173Z,16.65
2023-03-22T12:09:45.403Z,16.74
2023-03-22T12:12:54.453Z,16.95
2023-03-22T12:16:01.050Z,16.89
2023-03-22T12:19:14.052Z,17.45
2023-03-22T12:22:23.216Z,17.71
2023-03-22T12:25:32.240Z,17.57
2023-03-22T12:28:42.097Z,17.61
2023-03-22T12:31:59.478Z,17.67
2023-03-22T12:35:16.709Z,17.35
2023-03-22T12:38:48.403Z,17.41
2023-03-22T12:41:54.381Z,17.15
2023-03-22T12:45:05.612Z,17.17
2023-03-22T12:48:23.002Z,17.11
2023-03-22T12:51:26.001Z,17.26
2023-03-22T12:54:32.984Z,17.17
2023-03-22T12:57:35.609Z,17.21
2023-03-22T13:01:06.759Z,17.30
2023-03-22T13:04:36.511Z,17.25
2023-03-22T13:07:48.023Z,17.63
2023-03-22T13:11:05.308Z,17.68
2023-03-22T13:14:11.566Z,17.78
2023-03-22T13:17:33.687Z,17.78
2023-03-22T13:20:39.030Z,18.04
2023-03-22T13:24:06.492Z,18.26
2023-03-22T13:27:11.757Z,17.97
2023-03-22T13:30:33.184Z,18.34
2023-03-22T13:33:37.089Z,18.34
2023-03-22T13:36:39.860Z,18.25
2023-03-22T13:39:46.671Z,18.18
2023-03-22T13:42:50.823Z,18.12
2023-03-22T13:46:14.392Z,18.08
2023-03-22T13:49:45.412Z,17.87
2023-03-22T13:53:06.014Z,17.87
2023-03-22T13:56:27.738Z,18.10
2023-03-22T14:00:08.824Z,18.45
2023-03-22T14:03:24.579Z,18.41
2023-03-22T14:06:31.934Z,18.51
2023-03-22T14:09:46.651Z,18.10
2023-03-22T14:13:03.928Z,18.10
2023-03-22T14:16:18.257Z,18.19
2023-03-22T14:19:25.763Z,18.31
